createdAt,value
2023-02-07T00:01:18.360Z,26.53
2023-02-07T00:03:46.134Z,20.50
2023-02-07T00:06:15.083Z,23.70
2023-02-07T00:08:44.309Z,18.80
2023-02-07T00:11:13.197Z,25.07
2023-02-07T00:13:40.846Z,20.47
2023-02-07T00:16:09.468Z,24.80
2023-02-07T00:18:37.401Z,19.07
2023-02-07T00:21:06.664Z,18.57
2023-02-07T00:23:34.494Z,17.27
2023-02-07T00:26:03.739Z,18.20
2023-02-07T00:28:31.471Z,20.07
2023-02-07T00:31:06.632Z,19.07
2023-02-07T00:33:35.111Z,14.63
2023-02-07T00:36:04.290Z,17.97
2023-02-07T00:38:32.139Z,20.07
2023-02-07T00:41:01.488Z,18.83
2023-02-07T00:43:31.150Z,17.00
2023-02-07T00:45:59.476Z,17.50
2023-02-07T00:48:27.414Z,18.17
2023-02-07T00:50:55.117Z,22.33
2023-02-07T00:53:23.163Z,17.03
2023-02-07T00:55:50.846Z,14.33
2023-02-07T00:58:18.606Z,15.77
2023-02-07T01:00:47.682Z,15.60
2023-02-07T01:03:15.558Z,14.20
2023-02-07T01:05:43.238Z,14.83
2023-02-07T01:08:11.004Z,13.93
2023-02-07T01:10:40.232Z,11.80
2023-02-07T01:13:08.040Z,16.97
2023-02-07T01:15:37.859Z,16.27
2023-02-07T01:18:08.016Z,12.73
2023-02-07T01:20:35.768Z,17.47
2023-02-07T01:23:03.583Z,14.30
2023-02-07T01:25:31.436Z,12.33
2023-02-07T01:27:59.333Z,14.70
2023-02-07T01:30:27.265Z,13.77
2023-02-07T01:32:55.002Z,14.47
2023-02-07T01:35:24.145Z,13.50
2023-02-07T01:37:51.820Z,11.87
2023-02-07T01:40:19.678Z,10.83
2023-02-07T01:42:47.359Z,12.50
2023-02-07T01:45:24.270Z,11.50
2023-02-07T01:47:52.574Z,11.00
2023-02-07T01:50:20.522Z,11.63
2023-02-07T01:52:49.533Z,11.17
2023-02-07T01:55:20.795Z,10.90
2023-02-07T01:57:48.477Z,12.07
2023-02-07T02:00:16.549Z,10.67
2023-02-07T02:02:44.592Z,8.80
2023-02-07T02:05:12.625Z,11.57
2023-02-07T02:07:40.748Z,10.70
2023-02-07T02:10:15.094Z,11.67
2023-02-07T02:12:53.871Z,10.17
2023-02-07T02:15:29.973Z,13.70
2023-02-07T02:18:04.055Z,9.00
2023-02-07T02:21:00.652Z,10.27
2023-02-07T02:23:34.390Z,13.10
2023-02-07T02:26:42.435Z,10.07
2023-02-07T02:29:47.157Z,10.37
2023-02-07T02:32:56.775Z,11.60
2023-02-07T02:35:29.736Z,8.60
2023-02-07T02:37:59.564Z,8.40
2023-02-07T02:40:30.195Z,8.03
2023-02-07T02:43:00.999Z,8.37
2023-02-07T02:45:29.837Z,7.50
2023-02-07T02:47:57.668Z,6.80
2023-02-07T02:50:29.283Z,7.03
2023-02-07T02:52:57.155Z,7.17
2023-02-07T02:55:34.609Z,12.83
2023-02-07T02:58:03.680Z,11.83
2023-02-07T03:00:41.456Z,10.67
2023-02-07T03:03:27.507Z,11.87
2023-02-07T03:06:00.738Z,11.83
2023-02-07T03:08:32.421Z,11.37
2023-02-07T03:11:04.518Z,11.27
2023-02-07T03:13:34.069Z,11.13
2023-02-07T03:16:05.816Z,10.90
2023-02-07T03:18:38.344Z,9.70
2023-02-07T03:21:09.874Z,10.03
2023-02-07T03:23:37.509Z,11.10
2023-02-07T03:26:05.630Z,11.63
2023-02-07T03:28:33.304Z,8.83
2023-02-07T03:31:01.531Z,10.03
2023-02-07T03:33:29.504Z,10.73
2023-02-07T03:35:58.812Z,10.20
2023-02-07T03:38:27.840Z,13.23
2023-02-07T03:40:58.785Z,9.37
2023-02-07T03:43:27.940Z,10.23
2023-02-07T03:45:56.156Z,9.03
2023-02-07T03:48:23.823Z,10.70
2023-02-07T03:50:52.938Z,8.13
2023-02-07T03:53:20.670Z,11.37
2023-02-07T03:55:49.879Z,8.93
2023-02-07T03:58:17.551Z,9.80
2023-02-07T04:00:45.314Z,10.63
2023-02-07T04:03:13.077Z,9.57
2023-02-07T04:05:41.268Z,7.30
2023-02-07T04:08:08.930Z,8.27
2023-02-07T04:10:36.766Z,8.63
2023-02-07T04:13:05.803Z,9.93
2023-02-07T04:15:35.165Z,8.50
2023-02-07T04:18:02.811Z,11.33
2023-02-07T04:20:31.350Z,9.77
2023-02-07T04:22:59.037Z,9.00
2023-02-07T04:25:28.043Z,9.07
2023-02-07T04:27:55.893Z,10.47
2023-02-07T04:30:25.172Z,12.10
2023-02-07T04:32:53.213Z,11.23
2023-02-07T04:35:21.146Z,11.77
2023-02-07T04:37:48.785Z,11.47
2023-02-07T04:40:17.224Z,10.27
2023-02-07T04:42:44.908Z,10.63
2023-02-07T04:45:12.641Z,10.00
2023-02-07T04:47:41.709Z,12.33
2023-02-07T04:50:09.827Z,7.73
2023-02-07T04:52:37.979Z,8.90
2023-02-07T04:55:06.804Z,8.60
2023-02-07T04:57:34.570Z,8.50
2023-02-07T05:00:03.440Z,9.77
2023-02-07T05:02:31.343Z,9.63
2023-02-07T05:05:00.419Z,12.80
2023-02-07T05:07:28.218Z,9.00
2023-02-07T05:09:55.962Z,8.63
2023-02-07T05:12:23.737Z,11.60
2023-02-07T05:14:51.415Z,11.07
2023-02-07T05:17:19.268Z,11.33
2023-02-07T05:19:46.923Z,14.00
2023-02-07T05:22:16.143Z,15.57
2023-02-07T05:24:43.904Z,12.97
2023-02-07T05:27:13.674Z,15.17
2023-02-07T05:29:41.320Z,11.43
2023-02-07T05:34:42.771Z,12.03
2023-02-07T05:37:10.524Z,12.87
2023-02-07T05:39:39.750Z,12.60
2023-02-07T05:42:07.469Z,10.87
2023-02-07T05:44:35.357Z,12.07
2023-02-07T05:47:03.166Z,10.30
2023-02-07T05:49:31.107Z,9.23
2023-02-07T05:51:59.012Z,14.27
2023-02-07T05:54:27.069Z,10.60
2023-02-07T05:56:56.269Z,12.10
2023-02-07T05:59:24.145Z,11.30
2023-02-07T06:01:52.007Z,9.87
2023-02-07T06:04:19.931Z,13.40
2023-02-07T06:06:47.719Z,10.60
2023-02-07T06:09:15.518Z,10.83
2023-02-07T06:11:43.256Z,10.53
2023-02-07T06:14:12.565Z,10.57
2023-02-07T06:16:40.376Z,10.47
2023-02-07T06:19:09.315Z,11.13
2023-02-07T06:21:46.014Z,9.77
2023-02-07T06:24:14.897Z,10.27
2023-02-07T06:26:42.889Z,8.53
2023-02-07T06:29:14.823Z,8.93
2023-02-07T06:31:43.136Z,13.13
2023-02-07T06:34:11.374Z,8.63
2023-02-07T06:36:39.783Z,9.70
2023-02-07T06:39:07.796Z,10.83
2023-02-07T06:41:35.796Z,12.10
2023-02-07T06:44:04.075Z,12.60
2023-02-07T06:46:33.573Z,14.17
2023-02-07T06:49:05.189Z,13.17
2023-02-07T06:51:44.725Z,13.87
2023-02-07T06:54:13.162Z,13.57
2023-02-07T06:56:41.122Z,13.50
2023-02-07T06:59:08.889Z,11.53
2023-02-07T07:01:38.287Z,12.60
2023-02-07T07:04:06.482Z,8.07
2023-02-07T07:06:34.483Z,10.40
2023-02-07T07:09:02.284Z,7.83
2023-02-07T07:11:36.592Z,9.43
2023-02-07T07:14:04.680Z,11.73
2023-02-07T07:16:32.758Z,11.97
2023-02-07T07:19:01.955Z,13.73
2023-02-07T07:21:29.804Z,12.73
2023-02-07T07:23:57.680Z,13.33
2023-02-07T07:26:27.172Z,14.80
2023-02-07T07:29:00.165Z,10.27
2023-02-07T07:31:28.432Z,13.77
2023-02-07T07:33:56.479Z,15.50
2023-02-07T07:36:25.988Z,14.63
2023-02-07T07:38:53.900Z,16.77
2023-02-07T07:41:21.896Z,10.77
2023-02-07T07:43:49.915Z,10.60
2023-02-07T07:46:17.846Z,8.43
2023-02-07T07:49:01.581Z,10.93
2023-02-07T07:51:39.790Z,10.00
2023-02-07T07:54:20.587Z,8.80
2023-02-07T07:56:52.997Z,8.27
2023-02-07T07:59:24.400Z,8.27
2023-02-07T08:01:52.891Z,7.67
2023-02-07T08:04:34.883Z,9.87
2023-02-07T08:07:13.374Z,12.70
2023-02-07T08:09:50.206Z,8.67
2023-02-07T08:12:20.001Z,8.07
2023-02-07T08:14:53.565Z,9.63
2023-02-07T08:17:21.456Z,9.33
2023-02-07T08:20:38.760Z,11.43
2023-02-07T08:23:17.717Z,8.27
2023-02-07T08:25:51.337Z,8.23
2023-02-07T08:28:20.718Z,8.10
2023-02-07T08:30:53.128Z,9.87
2023-02-07T08:33:32.021Z,9.13
2023-02-07T08:36:05.706Z,8.07
2023-02-07T08:38:37.876Z,10.23
2023-02-07T08:41:08.284Z,7.70
2023-02-07T08:43:38.078Z,9.40
2023-02-07T08:46:08.919Z,14.67
2023-02-07T08:48:37.238Z,12.53
2023-02-07T08:51:17.866Z,6.33
2023-02-07T08:54:01.209Z,7.23
2023-02-07T08:56:37.577Z,6.10
2023-02-07T08:59:12.190Z,6.07
2023-02-07T09:01:44.122Z,5.90
2023-02-07T09:04:12.201Z,5.70
2023-02-07T09:06:40.166Z,5.10
2023-02-07T09:09:10.544Z,9.93
2023-02-07T09:11:38.632Z,5.10
2023-02-07T09:14:06.855Z,5.10
2023-02-07T09:16:38.071Z,4.93
2023-02-07T09:19:06.543Z,6.17
2023-02-07T09:21:34.505Z,8.40
2023-02-07T09:24:02.794Z,5.90
2023-02-07T09:26:34.338Z,27.57
2023-02-07T09:29:02.485Z,5.18
2023-02-07T09:31:30.585Z,5.90
2023-02-07T09:34:00.201Z,5.60
2023-02-07T09:36:29.497Z,5.60
2023-02-07T09:38:57.970Z,5.20
2023-02-07T09:41:28.657Z,6.70
2023-02-07T09:44:07.598Z,6.57
2023-02-07T09:46:37.061Z,6.88
2023-02-07T09:49:07.904Z,6.10
2023-02-07T09:51:36.041Z,6.22
2023-02-07T09:54:07.882Z,5.78
2023-02-07T09:56:36.132Z,5.88
2023-02-07T09:59:09.634Z,7.00
2023-02-07T10:01:38.724Z,5.88
2023-02-07T10:04:14.907Z,6.05
2023-02-07T10:06:42.927Z,6.20
2023-02-07T10:09:11.767Z,5.78
2023-02-07T10:11:42.868Z,5.65
2023-02-07T10:14:19.170Z,5.47
2023-02-07T10:16:50.044Z,5.90
2023-02-07T10:19:23.103Z,5.70
2023-02-07T10:21:55.126Z,5.22
2023-02-07T10:24:31.856Z,6.75
2023-02-07T10:27:05.185Z,5.90
2023-02-07T10:29:54.306Z,5.22
2023-02-07T10:32:39.242Z,6.15
2023-02-07T10:35:17.673Z,5.82
2023-02-07T10:38:00.535Z,5.85
2023-02-07T10:40:31.129Z,6.13
2023-02-07T10:43:09.474Z,6.03
2023-02-07T10:45:49.839Z,5.43
2023-02-07T10:48:20.146Z,6.13
2023-02-07T10:50:48.373Z,6.22
2023-02-07T10:53:22.859Z,5.80
2023-02-07T10:55:53.396Z,6.20
2023-02-07T10:58:25.226Z,5.70
2023-02-07T11:01:07.146Z,6.35
2023-02-07T11:03:39.467Z,6.72
2023-02-07T11:06:26.199Z,6.03
2023-02-07T11:09:14.085Z,6.82
2023-02-07T11:11:44.121Z,5.55
2023-02-07T11:14:17.413Z,6.05
2023-02-07T11:16:47.010Z,6.45
2023-02-07T11:19:17.963Z,6.70
2023-02-07T11:21:46.946Z,7.20
2023-02-07T11:24:16.014Z,8.93
2023-02-07T11:26:57.674Z,9.00
2023-02-07T11:29:48.794Z,6.22
2023-02-07T11:32:17.898Z,6.65
2023-02-07T11:34:47.414Z,6.07
2023-02-07T11:37:27.148Z,6.05
2023-02-07T11:39:55.651Z,6.05
2023-02-07T11:42:24.819Z,6.28
2023-02-07T11:44:52.771Z,6.35
2023-02-07T11:47:23.699Z,6.32
2023-02-07T11:49:52.717Z,6.28
2023-02-07T11:52:20.436Z,6.88
2023-02-07T11:54:53.175Z,6.57
2023-02-07T11:57:21.070Z,7.07
2023-02-07T11:59:51.289Z,6.85
2023-02-07T12:02:20.946Z,5.88
2023-02-07T12:04:50.108Z,5.90
2023-02-07T12:07:19.980Z,6.55
2023-02-07T12:09:48.664Z,5.50
2023-02-07T12:12:17.613Z,6.13
2023-02-07T12:14:48.726Z,5.93
2023-02-07T12:17:18.274Z,6.35
2023-02-07T12:19:53.138Z,5.80
2023-02-07T12:22:22.474Z,6.00
2023-02-07T12:24:52.838Z,6.03
2023-02-07T12:27:20.756Z,5.65
2023-02-07T12:29:56.156Z,5.70
2023-02-07T12:32:31.075Z,5.95
2023-02-07T12:35:02.653Z,4.85
2023-02-07T12:37:34.954Z,5.13
2023-02-07T12:40:05.845Z,4.93
2023-02-07T12:42:39.532Z,5.20
2023-02-07T12:45:08.425Z,5.43
2023-02-07T12:47:44.959Z,4.90
2023-02-07T12:50:24.942Z,5.57
2023-02-07T12:52:58.773Z,6.13
2023-02-07T12:55:37.358Z,4.97
2023-02-07T12:58:12.799Z,5.40
2023-02-07T13:00:46.623Z,4.93
2023-02-07T13:03:19.681Z,5.18
2023-02-07T13:05:54.718Z,5.63
2023-02-07T13:08:27.700Z,5.57
2023-02-07T13:10:59.621Z,5.10
2023-02-07T13:13:30.108Z,5.22
2023-02-07T13:16:01.251Z,5.40
2023-02-07T13:18:35.304Z,4.37
2023-02-07T13:21:09.016Z,4.40
2023-02-07T13:23:43.991Z,4.70
2023-02-07T13:26:13.696Z,4.43
2023-02-07T13:28:43.367Z,4.53
2023-02-07T13:31:12.623Z,4.60
2023-02-07T13:33:40.902Z,4.80
2023-02-07T13:36:14.725Z,4.73
2023-02-07T13:39:08.767Z,5.00
2023-02-07T13:41:42.687Z,4.87
2023-02-07T13:44:16.010Z,4.67
2023-02-07T13:47:11.305Z,6.67
2023-02-07T13:49:43.700Z,4.00
2023-02-07T13:52:14.842Z,4.30
2023-02-07T13:54:44.762Z,4.70
2023-02-07T13:57:38.117Z,3.77
2023-02-07T14:00:08.960Z,4.27
2023-02-07T14:02:41.176Z,4.90
2023-02-07T14:05:10.345Z,4.23
2023-02-07T14:07:39.699Z,4.27
2023-02-07T14:10:08.978Z,3.50
2023-02-07T14:12:39.169Z,4.07
2023-02-07T14:15:36.411Z,4.13
2023-02-07T14:18:05.172Z,3.90
2023-02-07T14:20:49.482Z,4.87
2023-02-07T14:23:19.095Z,4.43
2023-02-07T14:25:47.248Z,31.40
2023-02-07T14:28:30.870Z,4.10
2023-02-07T14:31:01.817Z,6.20
2023-02-07T14:33:34.869Z,4.20
2023-02-07T14:36:21.688Z,3.40
2023-02-07T14:39:22.254Z,3.60
2023-02-07T14:41:51.388Z,3.60
2023-02-07T14:44:24.788Z,3.50
2023-02-07T14:46:53.125Z,3.83
2023-02-07T14:49:21.812Z,3.37
2023-02-07T14:51:50.456Z,3.40
2023-02-07T14:54:22.831Z,5.83
2023-02-07T14:57:06.209Z,4.10
2023-02-07T14:59:36.223Z,3.63
2023-02-07T15:02:29.539Z,3.50
2023-02-07T15:04:57.309Z,4.60
2023-02-07T15:07:24.997Z,3.80
2023-02-07T15:09:54.122Z,4.10
2023-02-07T15:12:27.253Z,3.80
2023-02-07T15:14:56.911Z,4.47
2023-02-07T15:17:28.900Z,4.33
2023-02-07T15:20:01.366Z,4.03
2023-02-07T15:22:29.821Z,3.47
2023-02-07T15:24:59.100Z,4.17
2023-02-07T15:27:27.976Z,5.77
2023-02-07T15:29:56.287Z,10.03
2023-02-07T15:32:24.268Z,4.03
2023-02-07T15:34:52.056Z,5.30
2023-02-07T15:37:22.160Z,4.13
2023-02-07T15:39:59.168Z,6.07
2023-02-07T15:42:26.893Z,4.63
2023-02-07T15:44:55.231Z,3.80
2023-02-07T15:47:36.192Z,3.30
2023-02-07T15:50:05.397Z,4.30
2023-02-07T15:52:34.318Z,3.77
2023-02-07T15:55:05.098Z,4.43
2023-02-07T15:57:35.285Z,5.67
2023-02-07T16:00:04.900Z,4.63
2023-02-07T16:02:36.794Z,5.90
2023-02-07T16:05:09.368Z,6.83
2023-02-07T16:07:37.189Z,4.80
2023-02-07T16:10:20.173Z,4.17
2023-02-07T16:12:50.422Z,5.77
2023-02-07T16:15:26.416Z,4.90
2023-02-07T16:17:55.346Z,5.33
2023-02-07T16:20:23.117Z,7.23
2023-02-07T16:22:52.907Z,5.70
2023-02-07T16:25:23.515Z,8.23
2023-02-07T16:27:52.717Z,5.53
2023-02-07T16:30:21.688Z,6.70
2023-02-07T16:32:49.403Z,5.60
2023-02-07T16:35:19.103Z,5.83
2023-02-07T16:37:46.815Z,5.83
2023-02-07T16:40:14.650Z,6.77
2023-02-07T16:42:44.133Z,6.50
2023-02-07T16:45:17.547Z,7.57
2023-02-07T16:47:45.324Z,7.20
2023-02-07T16:50:18.076Z,7.07
2023-02-07T16:52:46.503Z,6.90
2023-02-07T16:55:14.288Z,6.87
2023-02-07T16:57:43.383Z,6.27
2023-02-07T17:00:15.449Z,9.77
2023-02-07T17:02:43.282Z,7.50
2023-02-07T17:05:11.230Z,8.23
2023-02-07T17:07:39.103Z,8.73
2023-02-07T17:10:16.928Z,9.27
2023-02-07T17:12:46.498Z,9.03
2023-02-07T17:15:14.317Z,14.50
2023-02-07T17:17:42.042Z,9.73
2023-02-07T17:20:20.317Z,9.20
2023-02-07T17:22:48.358Z,11.33
2023-02-07T17:25:17.582Z,13.10
2023-02-07T17:27:46.763Z,9.83
2023-02-07T17:30:18.016Z,7.93
2023-02-07T17:32:45.862Z,11.40
2023-02-07T17:35:13.723Z,22.10
2023-02-07T17:37:41.392Z,11.30
2023-02-07T17:40:18.530Z,11.30
2023-02-07T17:42:47.603Z,11.30
2023-02-07T17:45:15.450Z,10.77
2023-02-07T17:47:43.186Z,10.27
2023-02-07T17:52:44.846Z,11.80
2023-02-07T17:55:12.726Z,13.80
2023-02-07T17:57:41.452Z,10.03
2023-02-07T18:00:15.666Z,14.90
2023-02-07T18:02:45.833Z,10.10
2023-02-07T18:05:14.562Z,13.03
2023-02-07T18:07:43.044Z,10.20
2023-02-07T18:10:11.965Z,12.13
2023-02-07T18:12:44.284Z,11.87
2023-02-07T18:15:13.514Z,13.17
2023-02-07T18:17:41.299Z,12.57
2023-02-07T18:20:15.049Z,10.03
2023-02-07T18:22:45.887Z,10.07
2023-02-07T18:25:19.977Z,14.43
2023-02-07T18:27:51.149Z,12.40
2023-02-07T18:30:20.946Z,12.57
2023-02-07T18:32:48.822Z,10.30
2023-02-07T18:35:16.649Z,10.63
2023-02-07T18:37:44.472Z,11.17
2023-02-07T18:40:15.634Z,10.47
2023-02-07T18:42:45.995Z,11.87
2023-02-07T18:45:15.578Z,13.23
2023-02-07T18:47:44.860Z,10.73
2023-02-07T18:50:12.846Z,10.67
2023-02-07T18:52:40.587Z,11.73
2023-02-07T18:55:11.222Z,13.53
2023-02-07T18:57:39.124Z,13.30
2023-02-07T19:00:11.446Z,12.03
2023-02-07T19:02:39.306Z,12.27
2023-02-07T19:05:09.092Z,15.37
2023-02-07T19:07:36.970Z,13.60
2023-02-07T19:10:04.835Z,10.97
2023-02-07T19:12:32.636Z,11.50
2023-02-07T19:15:00.552Z,12.47
2023-02-07T19:17:28.720Z,14.23
2023-02-07T19:19:56.898Z,12.63
2023-02-07T19:22:35.244Z,11.23
2023-02-07T19:25:03.857Z,13.20
2023-02-07T19:27:31.759Z,11.20
2023-02-07T19:29:59.865Z,15.60
2023-02-07T19:32:27.826Z,13.43
2023-02-07T19:34:55.707Z,14.10
2023-02-07T19:37:23.633Z,13.57
2023-02-07T19:39:56.422Z,18.13
2023-02-07T19:42:25.110Z,14.73
2023-02-07T19:44:53.121Z,12.10
2023-02-07T19:47:21.036Z,12.50
2023-02-07T19:49:51.736Z,12.67
2023-02-07T19:52:19.990Z,14.13
2023-02-07T19:54:48.006Z,14.23
2023-02-07T19:57:17.130Z,12.33
2023-02-07T19:59:45.641Z,16.67
2023-02-07T20:02:13.953Z,11.90
2023-02-07T20:04:41.910Z,15.00
2023-02-07T20:07:09.993Z,14.30
2023-02-07T20:09:37.983Z,12.17
2023-02-07T20:12:07.388Z,13.97
2023-02-07T20:14:37.984Z,13.20
2023-02-07T20:17:07.319Z,14.50
2023-02-07T20:19:36.186Z,13.10
2023-02-07T20:22:03.878Z,16.23
2023-02-07T20:24:31.717Z,17.17
2023-02-07T20:26:59.593Z,15.33
2023-02-07T20:29:27.872Z,15.57
2023-02-07T20:31:57.078Z,18.03
2023-02-07T20:34:24.934Z,16.73
2023-02-07T20:36:52.640Z,21.50
2023-02-07T20:39:22.420Z,14.20
2023-02-07T20:41:50.358Z,15.23
2023-02-07T20:44:19.473Z,16.13
2023-02-07T20:46:48.860Z,17.97
2023-02-07T20:49:20.740Z,15.63
2023-02-07T20:51:49.565Z,18.27
2023-02-07T20:54:17.873Z,16.87
2023-02-07T20:56:45.776Z,21.20
2023-02-07T20:59:18.653Z,17.53
2023-02-07T21:01:46.799Z,16.70
2023-02-07T21:04:14.574Z,18.70
2023-02-07T21:06:43.668Z,16.77
2023-02-07T21:09:12.203Z,14.70
2023-02-07T21:11:41.115Z,13.27
2023-02-07T21:14:10.183Z,12.30
2023-02-07T21:16:38.341Z,12.43
2023-02-07T21:19:06.465Z,15.23
2023-02-07T21:21:34.246Z,14.77
2023-02-07T21:24:04.968Z,14.80
2023-02-07T21:26:32.800Z,12.17
2023-02-07T21:29:00.760Z,14.13
2023-02-07T21:31:28.635Z,36.43
2023-02-07T21:33:56.722Z,14.87
2023-02-07T21:36:25.792Z,14.97
2023-02-07T21:38:54.551Z,16.23
2023-02-07T21:41:24.671Z,15.73
2023-02-07T21:43:52.866Z,15.20
2023-02-07T21:46:22.941Z,24.63
2023-02-07T21:48:51.531Z,19.70
2023-02-07T21:51:20.127Z,17.37
2023-02-07T21:53:48.892Z,16.57
2023-02-07T21:56:17.505Z,16.83
2023-02-07T21:58:46.736Z,14.70
2023-02-07T22:01:15.406Z,15.37
2023-02-07T22:03:45.340Z,13.13
2023-02-07T22:06:13.447Z,16.03
2023-02-07T22:08:46.241Z,15.27
2023-02-07T22:11:13.971Z,18.43
2023-02-07T22:13:42.912Z,17.53
2023-02-07T22:16:13.220Z,17.00
2023-02-07T22:18:41.069Z,15.20
2023-02-07T22:21:09.963Z,16.00
2023-02-07T22:23:37.859Z,16.27
2023-02-07T22:26:05.966Z,17.07
2023-02-07T22:28:33.780Z,16.57
2023-02-07T22:31:01.671Z,18.30
2023-02-07T22:33:30.901Z,17.07
2023-02-07T22:35:58.630Z,17.00
2023-02-07T22:38:26.523Z,15.23
2023-02-07T22:40:54.280Z,20.73
2023-02-07T22:43:24.301Z,18.80
2023-02-07T22:45:52.041Z,15.73
2023-02-07T22:48:19.868Z,16.63
2023-02-07T22:50:49.197Z,17.03
2023-02-07T22:53:17.090Z,16.33
2023-02-07T22:55:44.832Z,14.00
2023-02-07T22:58:13.374Z,16.07
2023-02-07T23:00:47.312Z,16.47
2023-02-07T23:03:15.058Z,16.37
2023-02-07T23:05:42.864Z,15.80
2023-02-07T23:08:13.370Z,15.73
2023-02-07T23:10:41.469Z,17.40
2023-02-07T23:13:09.473Z,16.27
2023-02-07T23:15:37.301Z,13.17
2023-02-07T23:18:05.412Z,15.27
2023-02-07T23:20:33.200Z,13.53
2023-02-07T23:23:01.016Z,14.97
2023-02-07T23:25:30.133Z,17.93
2023-02-07T23:27:57.975Z,17.70
2023-02-07T23:30:25.872Z,14.13
2023-02-07T23:32:53.640Z,18.17
2023-02-07T23:35:21.531Z,15.30
2023-02-07T23:37:50.371Z,14.53
2023-02-07T23:40:18.448Z,16.53
2023-02-07T23:42:47.835Z,14.60
2023-02-07T23:45:15.792Z,13.87
2023-02-07T23:47:43.503Z,13.73
2023-02-07T23:50:11.418Z,15.43
2023-02-07T23:52:39.187Z,17.53
2023-02-07T23:55:07.871Z,14.17
2023-02-07T23:57:36.696Z,15.97
